Forest Park, Georgia
Current Conditions -  °F | °C
As of 11:52 PM on Saturday 22 Nov 2014 (Local Time) from KATL Reporting Station
Overcast Overcast  
Wind Chill: 54°   Ceiling: 1700
Heat Index: 54°   Visibility: 10mi
Dew Point: 30°   Wind: 10mph
Humidity: 40%   Direction: 90°E
Pressure: 30.2"   Gusts: NA
Location:  33.62°N, 84.36°W
Report Text: KATL 230452Z 09009KT 10SM BKN017 OVC050 12/M01 A3020 RMK AO2 SLP228 T01221011 401670033 $
Loading
Personal Weather Stations






























Interactive Weather Map New forecast layout! Learn more

10-Day Weather Forecast

Advertisements
Track Severe Weather on mobile